createdAt,value
2019-03-26T00:00:31.084Z,1027.38
2019-03-26T00:01:31.092Z,1027.37
2019-03-26T00:02:31.033Z,1027.39
2019-03-26T00:03:31.114Z,1027.42
2019-03-26T00:04:30.962Z,1027.38
2019-03-26T00:05:31.015Z,1027.44
2019-03-26T00:06:30.923Z,1027.40
2019-03-26T00:07:30.923Z,1027.37
2019-03-26T00:08:30.852Z,1027.36
2019-03-26T00:09:30.945Z,1027.37
2019-03-26T00:10:30.794Z,1027.33
2019-03-26T00:11:30.842Z,1027.30
2019-03-26T00:12:30.743Z,1027.33
2019-03-26T00:13:30.751Z,1027.32
2019-03-26T00:14:30.681Z,1027.34
2019-03-26T00:15:30.661Z,1027.33
2019-03-26T00:16:30.621Z,1027.36
2019-03-26T00:17:30.685Z,1027.34
2019-03-26T00:18:30.574Z,1027.37
2019-03-26T00:19:30.558Z,1027.40
2019-03-26T00:20:30.591Z,1027.38
2019-03-26T00:21:30.495Z,1027.37
2019-03-26T00:22:30.501Z,1027.39
2019-03-26T00:23:30.426Z,1027.37
2019-03-26T00:24:30.423Z,1027.41
2019-03-26T00:25:30.374Z,1027.40
2019-03-26T00:26:30.423Z,1027.40
2019-03-26T00:27:30.312Z,1027.38
2019-03-26T00:28:30.335Z,1027.39
2019-03-26T00:29:30.255Z,1027.38
2019-03-26T00:30:30.230Z,1027.36
2019-03-26T00:31:30.203Z,1027.32
2019-03-26T00:32:30.266Z,1027.37
2019-03-26T00:33:36.277Z,1027.40
2019-03-26T00:34:30.173Z,1027.36
2019-03-26T00:35:30.086Z,1027.39
2019-03-26T00:36:30.063Z,1027.37
2019-03-26T00:37:30.090Z,1027.38
2019-03-26T00:38:30.048Z,1027.37
2019-03-26T00:39:29.992Z,1027.43
2019-03-26T00:40:29.941Z,1027.42
2019-03-26T00:41:29.914Z,1027.47
2019-03-26T00:42:29.893Z,1027.41
2019-03-26T00:43:29.923Z,1027.45
2019-03-26T00:44:29.832Z,1027.43
2019-03-26T00:45:29.892Z,1027.44
2019-03-26T00:46:29.772Z,1027.44
2019-03-26T00:47:29.770Z,1027.44
2019-03-26T00:48:29.742Z,1027.46
2019-03-26T00:49:29.690Z,1027.41
2019-03-26T00:50:29.763Z,1027.45
2019-03-26T00:51:29.631Z,1027.47
2019-03-26T00:52:29.602Z,1027.43
2019-03-26T00:53:29.572Z,1027.49
2019-03-26T00:54:29.583Z,1027.41
2019-03-26T00:55:29.510Z,1027.45
2019-03-26T00:56:29.591Z,1027.43
2019-03-26T00:57:29.466Z,1027.48
2019-03-26T00:58:29.440Z,1027.44
2019-03-26T00:59:29.400Z,1027.42
2019-03-26T01:00:29.424Z,1027.43
2019-03-26T01:01:29.352Z,1027.42
2019-03-26T01:02:29.432Z,1027.44
2019-03-26T01:03:29.294Z,1027.43
2019-03-26T01:04:32.940Z,1027.43
2019-03-26T01:05:29.240Z,1027.40
2019-03-26T01:06:29.240Z,1027.42
2019-03-26T01:07:29.182Z,1027.39
2019-03-26T01:08:29.261Z,1027.39
2019-03-26T01:09:29.172Z,1027.39
2019-03-26T01:10:29.092Z,1027.35
2019-03-26T01:11:29.172Z,1027.31
2019-03-26T01:12:31.200Z,1027.32
2019-03-26T01:13:29.081Z,1027.31
2019-03-26T01:14:28.981Z,1027.34
2019-03-26T01:15:28.957Z,1027.35
2019-03-26T01:16:28.999Z,1027.36
2019-03-26T01:17:28.891Z,1027.33
2019-03-26T01:18:28.922Z,1027.32
2019-03-26T01:19:28.841Z,1027.32
2019-03-26T01:20:28.810Z,1027.36
2019-03-26T01:21:28.783Z,1027.38
2019-03-26T01:22:28.831Z,1027.33
2019-03-26T01:23:28.732Z,1027.32
2019-03-26T01:24:28.758Z,1027.34
2019-03-26T01:25:28.670Z,1027.35
2019-03-26T01:26:28.629Z,1027.34
2019-03-26T01:27:28.662Z,1027.37
2019-03-26T01:28:28.593Z,1027.35
2019-03-26T01:29:28.571Z,1027.34
2019-03-26T01:30:28.521Z,1027.34
2019-03-26T01:31:28.502Z,1027.40
2019-03-26T01:32:28.469Z,1027.39
2019-03-26T01:33:28.491Z,1027.38
2019-03-26T01:34:28.411Z,1027.46
2019-03-26T01:35:28.404Z,1027.42
2019-03-26T01:36:28.353Z,1027.45
2019-03-26T01:37:28.321Z,1027.46
2019-03-26T01:38:28.321Z,1027.47
2019-03-26T01:39:28.274Z,1027.47
2019-03-26T01:40:28.415Z,1027.53
2019-03-26T01:41:28.211Z,1027.49
2019-03-26T01:42:28.242Z,1027.47
2019-03-26T01:43:28.162Z,1027.44
2019-03-26T01:44:28.153Z,1027.41
2019-03-26T01:45:28.121Z,1027.36
2019-03-26T01:46:28.162Z,1027.44
2019-03-26T01:47:28.051Z,1027.43
2019-03-26T01:48:28.029Z,1027.41
2019-03-26T01:49:27.985Z,1027.39
2019-03-26T01:50:28.002Z,1027.41
2019-03-26T01:51:27.928Z,1027.44
2019-03-26T01:52:28.002Z,1027.39
2019-03-26T01:53:27.875Z,1027.37
2019-03-26T01:54:27.844Z,1027.43
2019-03-26T01:55:27.912Z,1027.43
2019-03-26T01:56:27.781Z,1027.45
2019-03-26T01:57:27.821Z,1027.45
2019-03-26T01:58:27.730Z,1027.42
2019-03-26T01:59:27.701Z,1027.43
2019-03-26T02:00:27.675Z,1027.40
2019-03-26T02:01:27.752Z,1027.38
2019-03-26T02:02:27.621Z,1027.39
2019-03-26T02:03:27.681Z,1027.35
2019-03-26T02:04:27.551Z,1027.39
2019-03-26T02:05:27.532Z,1027.42
2019-03-26T02:06:27.592Z,1027.42
2019-03-26T02:07:27.471Z,1027.45
2019-03-26T02:08:27.502Z,1027.37
2019-03-26T02:09:27.413Z,1027.39
2019-03-26T02:10:27.390Z,1027.35
2019-03-26T02:11:27.363Z,1027.33
2019-03-26T02:12:27.412Z,1027.40
2019-03-26T02:13:27.301Z,1027.37
2019-03-26T02:14:27.320Z,1027.42
2019-03-26T02:15:27.254Z,1027.44
2019-03-26T02:16:27.210Z,1027.44
2019-03-26T02:17:27.230Z,1027.48
2019-03-26T02:18:27.164Z,1027.47
2019-03-26T02:19:27.147Z,1027.51
2019-03-26T02:20:27.102Z,1027.49
2019-03-26T02:21:27.072Z,1027.57
2019-03-26T02:22:27.044Z,1027.59
2019-03-26T02:23:27.063Z,1027.55
2019-03-26T02:24:27.000Z,1027.52
2019-03-26T02:25:26.971Z,1027.53
2019-03-26T02:26:26.943Z,1027.53
2019-03-26T02:27:26.922Z,1027.53
2019-03-26T02:28:26.870Z,1027.52
2019-03-26T02:29:26.903Z,1027.52
2019-03-26T02:30:26.831Z,1027.50
2019-03-26T02:31:26.812Z,1027.46
2019-03-26T02:32:26.761Z,1027.48
2019-03-26T02:33:26.825Z,1027.41
2019-03-26T02:34:26.713Z,1027.40
2019-03-26T02:35:26.752Z,1027.45
2019-03-26T02:36:26.664Z,1027.48
2019-03-26T02:37:26.653Z,1027.47
2019-03-26T02:38:26.652Z,1027.42
2019-03-26T02:39:26.559Z,1027.40
2019-03-26T02:40:26.563Z,1027.40
2019-03-26T02:41:26.502Z,1027.37
2019-03-26T02:42:26.575Z,1027.38
2019-03-26T02:43:26.454Z,1027.29
2019-03-26T02:44:26.412Z,1027.24
2019-03-26T02:45:26.493Z,1027.15
2019-03-26T02:46:26.353Z,1027.20
2019-03-26T02:47:26.411Z,1027.21
2019-03-26T02:49:58.164Z,1027.22
2019-03-26T02:50:58.078Z,1027.21
2019-03-26T02:53:02.088Z,1027.23
2019-03-26T02:54:01.975Z,1027.23
2019-03-26T02:56:05.982Z,1027.29
2019-03-26T02:57:05.883Z,1027.27
2019-03-26T02:59:09.893Z,1027.31
2019-03-26T03:00:09.791Z,1027.34
2019-03-26T03:02:13.801Z,1027.34
2019-03-26T03:03:13.711Z,1027.42
2019-03-26T03:05:33.799Z,1027.37
2019-03-26T03:06:17.695Z,1027.39
2019-03-26T03:08:21.624Z,1027.42
2019-03-26T03:09:21.522Z,1027.39
2019-03-26T03:11:26.451Z,1027.40
2019-03-26T03:12:26.365Z,1027.39
2019-03-26T03:14:30.373Z,1027.35
2019-03-26T03:15:30.325Z,1027.35
2019-03-26T03:17:34.222Z,1027.41
2019-03-26T03:18:34.173Z,1027.41
2019-03-26T03:20:39.163Z,1027.42
2019-03-26T03:21:39.029Z,1027.43
2019-03-26T03:23:43.933Z,1027.46
2019-03-26T03:24:43.844Z,1027.46
2019-03-26T03:26:36.794Z,1027.52
2019-03-26T03:27:36.683Z,1027.45
2019-03-26T03:29:41.636Z,1027.46
2019-03-26T03:30:41.530Z,1027.45
2019-03-26T03:32:46.453Z,1027.45
2019-03-26T03:33:46.353Z,1027.49
2019-03-26T03:35:53.037Z,1027.52
2019-03-26T03:36:51.186Z,1027.55
2019-03-26T03:38:55.194Z,1027.57
2019-03-26T03:39:55.098Z,1027.58
2019-03-26T03:41:59.106Z,1027.63
2019-03-26T03:42:59.006Z,1027.63
2019-03-26T03:45:03.017Z,1027.60
2019-03-26T03:46:02.911Z,1027.59
2019-03-26T03:48:06.923Z,1027.59
2019-03-26T03:49:06.823Z,1027.58
2019-03-26T03:51:10.775Z,1027.61
2019-03-26T03:52:10.738Z,1027.59
2019-03-26T03:54:14.743Z,1027.54
2019-03-26T03:55:14.642Z,1027.56
2019-03-26T03:57:07.602Z,1027.60
2019-03-26T03:58:07.507Z,1027.64
2019-03-26T04:00:11.508Z,1027.57
2019-03-26T04:01:11.406Z,1027.59
2019-03-26T04:03:15.436Z,1027.62
2019-03-26T04:04:15.314Z,1027.59
2019-03-26T04:06:19.345Z,1027.55
2019-03-26T04:07:19.225Z,1027.54
2019-03-26T04:09:23.762Z,1027.55
2019-03-26T04:10:23.653Z,1027.56
2019-03-26T04:12:27.666Z,1027.59
2019-03-26T04:13:27.622Z,1027.67
2019-03-26T04:15:34.892Z,1027.67
2019-03-26T04:16:31.474Z,1027.68
2019-03-26T04:18:35.470Z,1027.63
2019-03-26T04:19:35.375Z,1027.59
2019-03-26T04:21:39.409Z,1027.61
2019-03-26T04:22:39.281Z,1027.63
2019-03-26T04:24:43.243Z,1027.62
2019-03-26T04:25:43.205Z,1027.62
2019-03-26T04:27:47.213Z,1027.63
2019-03-26T04:28:47.113Z,1027.61
2019-03-26T04:30:51.123Z,1027.65
2019-03-26T04:31:51.026Z,1027.62
2019-03-26T04:32:51.096Z,1027.61
2019-03-26T04:33:50.974Z,1027.58
2019-03-26T04:34:51.000Z,1027.58
2019-03-26T04:35:51.001Z,1027.60
2019-03-26T04:36:50.871Z,1027.57
2019-03-26T04:37:50.923Z,1027.62
2019-03-26T04:38:50.811Z,1027.62
2019-03-26T04:39:50.834Z,1027.62
2019-03-26T04:40:50.752Z,1027.65
2019-03-26T04:41:50.843Z,1027.62
2019-03-26T04:42:50.703Z,1027.58
2019-03-26T04:43:50.753Z,1027.59
2019-03-26T04:44:50.643Z,1027.57
2019-03-26T04:45:50.698Z,1027.55
2019-03-26T04:46:50.674Z,1027.57
2019-03-26T04:47:50.557Z,1027.59
2019-03-26T04:48:50.575Z,1027.57
2019-03-26T04:49:50.491Z,1027.57
2019-03-26T04:50:50.485Z,1027.53
2019-03-26T04:51:50.443Z,1027.54
2019-03-26T04:52:50.412Z,1027.57
2019-03-26T04:53:50.403Z,1027.59
2019-03-26T04:54:50.353Z,1027.58
2019-03-26T04:55:50.417Z,1027.60
2019-03-26T04:56:50.303Z,1027.62
2019-03-26T04:57:50.283Z,1027.62
2019-03-26T04:58:50.233Z,1027.58
2019-03-26T04:59:50.234Z,1027.62
2019-03-26T05:00:50.187Z,1027.59
2019-03-26T05:01:50.245Z,1027.60
2019-03-26T05:02:50.125Z,1027.60
2019-03-26T05:03:50.091Z,1027.58
2019-03-26T05:04:50.164Z,1027.59
2019-03-26T05:05:50.032Z,1027.60
2019-03-26T05:06:50.090Z,1027.58
2019-03-26T05:07:49.978Z,1027.57
2019-03-26T05:08:49.963Z,1027.58
2019-03-26T05:09:49.923Z,1027.52
2019-03-26T05:10:49.993Z,1027.51
2019-03-26T05:11:49.873Z,1027.50
2019-03-26T05:12:49.902Z,1027.50
2019-03-26T05:13:49.801Z,1027.44
2019-03-26T05:14:49.782Z,1027.48
2019-03-26T05:15:49.742Z,1027.42
2019-03-26T05:16:49.724Z,1027.39
2019-03-26T05:17:49.686Z,1027.41
2019-03-26T05:18:49.743Z,1027.40
2019-03-26T05:19:49.633Z,1027.44
2019-03-26T05:20:49.658Z,1027.38
2019-03-26T05:21:49.570Z,1027.36
2019-03-26T05:22:49.565Z,1027.37
2019-03-26T05:23:51.770Z,1027.36
2019-03-26T05:24:49.573Z,1027.34
2019-03-26T05:25:49.473Z,1027.35
2019-03-26T05:26:49.423Z,1027.36
2019-03-26T05:27:49.491Z,1027.41
2019-03-26T05:28:49.362Z,1027.40
2019-03-26T05:29:49.403Z,1027.40
2019-03-26T05:30:49.304Z,1027.44
2019-03-26T05:31:49.313Z,1027.45
2019-03-26T05:32:49.254Z,1027.48
2019-03-26T05:33:49.323Z,1027.49
2019-03-26T05:34:49.191Z,1027.48
2019-03-26T05:35:51.630Z,1027.46
2019-03-26T05:36:51.426Z,1027.45
2019-03-26T05:37:49.161Z,1027.46
2019-03-26T05:38:49.072Z,1027.47
2019-03-26T05:39:49.154Z,1027.49
2019-03-26T05:40:49.011Z,1027.52
2019-03-26T05:41:49.062Z,1027.50
2019-03-26T05:42:48.972Z,1027.53
2019-03-26T05:43:48.973Z,1027.56
2019-03-26T05:44:48.906Z,1027.57
2019-03-26T05:45:48.982Z,1027.58
2019-03-26T05:46:48.863Z,1027.60
2019-03-26T05:47:48.822Z,1027.61
2019-03-26T05:48:48.791Z,1027.61
2019-03-26T05:49:48.812Z,1027.66
2019-03-26T05:50:48.734Z,1027.65
2019-03-26T05:51:48.722Z,1027.65
2019-03-26T05:52:48.682Z,1027.67
2019-03-26T05:53:48.642Z,1027.67
2019-03-26T05:54:48.651Z,1027.68
2019-03-26T05:55:48.582Z,1027.71
2019-03-26T05:56:48.642Z,1027.73
2019-03-26T05:57:48.536Z,1027.76
2019-03-26T05:58:48.502Z,1027.77
2019-03-26T05:59:48.475Z,1027.79
2019-03-26T06:00:48.467Z,1027.82
2019-03-26T06:01:48.413Z,1027.77
2019-03-26T06:02:48.493Z,1027.75
2019-03-26T06:03:48.354Z,1027.74
2019-03-26T06:04:48.321Z,1027.76
2019-03-26T06:05:48.408Z,1027.78
2019-03-26T06:06:48.272Z,1027.76
2019-03-26T06:07:48.313Z,1027.77
2019-03-26T06:08:48.233Z,1027.76
2019-03-26T06:09:48.223Z,1027.79
2019-03-26T06:10:48.154Z,1027.80
2019-03-26T06:11:48.231Z,1027.79
2019-03-26T06:12:50.263Z,1027.82
2019-03-26T06:13:48.143Z,1027.82
2019-03-26T06:14:48.043Z,1027.83
2019-03-26T06:15:48.012Z,1027.84
2019-03-26T06:16:48.053Z,1027.87
2019-03-26T06:17:47.954Z,1027.88
2019-03-26T06:18:47.970Z,1027.89
2019-03-26T06:19:47.892Z,1027.97
2019-03-26T06:20:47.983Z,1028.02
2019-03-26T06:21:47.854Z,1028.02
2019-03-26T06:22:47.894Z,1028.03
2019-03-26T06:23:47.782Z,1028.02
2019-03-26T06:24:47.804Z,1028.03
2019-03-26T06:25:47.724Z,1028.06
2019-03-26T06:26:47.692Z,1028.13
2019-03-26T06:27:47.662Z,1028.14
2019-03-26T06:28:47.721Z,1028.16
2019-03-26T06:29:47.625Z,1028.15
2019-03-26T06:30:47.643Z,1028.16
2019-03-26T06:31:47.554Z,1028.15
2019-03-26T06:32:47.528Z,1028.15
2019-03-26T06:33:47.556Z,1028.16
2019-03-26T06:34:47.461Z,1028.19
2019-03-26T06:35:47.461Z,1028.19
2019-03-26T06:36:47.423Z,1028.25
2019-03-26T06:37:47.382Z,1028.25
2019-03-26T06:38:47.352Z,1028.26
2019-03-26T06:39:47.383Z,1028.24
2019-03-26T06:40:47.293Z,1028.27
2019-03-26T06:41:47.294Z,1028.24
2019-03-26T06:42:47.243Z,1028.23
2019-03-26T06:43:47.213Z,1028.22
2019-03-26T06:44:47.184Z,1028.19
2019-03-26T06:45:47.218Z,1028.18
2019-03-26T06:46:47.131Z,1028.24
2019-03-26T06:47:47.123Z,1028.25
2019-03-26T06:48:47.064Z,1028.28
2019-03-26T06:49:47.132Z,1028.31
2019-03-26T06:50:47.010Z,1028.30
2019-03-26T06:51:47.043Z,1028.31
2019-03-26T06:52:46.950Z,1028.33
2019-03-26T06:53:46.951Z,1028.30
2019-03-26T06:54:46.907Z,1028.36
2019-03-26T06:55:46.973Z,1028.38
2019-03-26T06:56:46.833Z,1028.33
2019-03-26T06:57:46.885Z,1028.35
2019-03-26T06:58:46.783Z,1028.35
2019-03-26T06:59:46.824Z,1028.36
2019-03-26T07:00:46.738Z,1028.34
2019-03-26T07:01:46.805Z,1028.28
2019-03-26T07:02:46.736Z,1028.31
2019-03-26T07:03:46.710Z,1028.32
2019-03-26T07:04:46.616Z,1028.32
2019-03-26T07:05:46.590Z,1028.33
2019-03-26T07:06:46.551Z,1028.39
2019-03-26T07:07:47.552Z,1028.36
2019-03-26T07:08:46.493Z,1028.39
2019-03-26T07:09:46.543Z,1028.36
2019-03-26T07:10:46.442Z,1028.36
2019-03-26T07:11:46.452Z,1028.38
2019-03-26T07:12:46.392Z,1028.43
2019-03-26T07:13:46.373Z,1028.42
2019-03-26T07:14:46.321Z,1028.43
2019-03-26T07:15:46.383Z,1028.42
2019-03-26T07:16:46.286Z,1028.43
2019-03-26T07:17:46.243Z,1028.41
2019-03-26T07:18:46.292Z,1028.43
2019-03-26T07:19:46.194Z,1028.40
2019-03-26T07:20:46.201Z,1028.42
2019-03-26T07:21:49.951Z,1028.45
2019-03-26T07:22:46.102Z,1028.45
2019-03-26T07:23:46.122Z,1028.45
2019-03-26T07:24:46.032Z,1028.46
2019-03-26T07:25:46.032Z,1028.43
2019-03-26T07:26:45.993Z,1028.45
2019-03-26T07:27:45.953Z,1028.43
2019-03-26T07:28:45.932Z,1028.43
2019-03-26T07:29:45.958Z,1028.45
2019-03-26T07:30:45.872Z,1028.42
2019-03-26T07:31:45.876Z,1028.53
2019-03-26T07:32:45.831Z,1028.49
2019-03-26T07:33:45.780Z,1028.51
2019-03-26T07:34:45.781Z,1028.47
2019-03-26T07:35:45.722Z,1028.53
2019-03-26T07:36:45.791Z,1028.56
2019-03-26T07:37:45.954Z,1028.51
2019-03-26T07:38:45.637Z,1028.53
2019-03-26T07:39:45.613Z,1028.52
2019-03-26T07:40:45.635Z,1028.46
2019-03-26T07:41:45.554Z,1028.50
2019-03-26T07:42:45.627Z,1028.54
2019-03-26T07:43:45.492Z,1028.57
2019-03-26T07:44:45.693Z,1028.58
2019-03-26T07:45:45.440Z,1028.56
2019-03-26T07:46:45.441Z,1028.55
2019-03-26T07:47:45.382Z,1028.52
2019-03-26T07:48:45.474Z,1028.58
2019-03-26T07:49:45.322Z,1028.57
2019-03-26T07:50:45.372Z,1028.57
2019-03-26T07:51:45.265Z,1028.49
2019-03-26T07:52:45.281Z,1028.56
2019-03-26T07:53:45.213Z,1028.56
2019-03-26T07:54:45.291Z,1028.60
2019-03-26T07:55:45.151Z,1028.62
2019-03-26T07:56:45.206Z,1028.64
2019-03-26T07:57:45.093Z,1028.62
2019-03-26T07:58:45.117Z,1028.64
2019-03-26T07:59:45.042Z,1028.58
2019-03-26T08:00:45.122Z,1028.64
2019-03-26T08:01:44.983Z,1028.56
2019-03-26T08:02:45.032Z,1028.56
2019-03-26T08:03:44.938Z,1028.49
2019-03-26T08:04:44.945Z,1028.55
2019-03-26T08:05:44.882Z,1028.52
2019-03-26T08:06:44.844Z,1028.53
2019-03-26T08:07:57.461Z,1028.56
2019-03-26T08:08:44.791Z,1028.59
2019-03-26T08:09:44.773Z,1028.61
2019-03-26T08:10:44.733Z,1028.52
2019-03-26T08:11:44.784Z,1028.53
2019-03-26T08:12:44.689Z,1028.53
2019-03-26T08:13:44.717Z,1028.53
2019-03-26T08:14:44.623Z,1028.51
2019-03-26T08:15:44.629Z,1028.52
2019-03-26T08:16:44.580Z,1028.57
2019-03-26T08:17:45.477Z,1028.63
2019-03-26T08:18:44.524Z,1028.60
2019-03-26T08:19:44.533Z,1028.63
2019-03-26T08:20:44.452Z,1028.59
2019-03-26T08:21:44.453Z,1028.59
2019-03-26T08:22:44.392Z,1028.58
2019-03-26T08:23:44.373Z,1028.63
2019-03-26T08:24:44.367Z,1028.65
2019-03-26T08:25:44.330Z,1028.67
2019-03-26T08:26:44.373Z,1028.65
2019-03-26T08:27:44.273Z,1028.67
2019-03-26T08:28:44.233Z,1028.74
2019-03-26T08:29:44.201Z,1028.67
2019-03-26T08:30:44.304Z,1028.71
2019-03-26T08:31:44.144Z,1028.69
2019-03-26T08:32:44.203Z,1028.67
2019-03-26T08:33:44.093Z,1028.70
2019-03-26T08:34:46.638Z,1028.65
2019-03-26T08:35:44.046Z,1028.66
2019-03-26T08:36:44.121Z,1028.70
2019-03-26T08:37:44.004Z,1028.59
2019-03-26T08:38:44.071Z,1028.59
2019-03-26T08:39:43.933Z,1028.56
2019-03-26T08:40:43.983Z,1028.54
2019-03-26T08:41:43.873Z,1028.51
2019-03-26T08:42:43.965Z,1028.53
2019-03-26T08:43:43.822Z,1028.54
2019-03-26T08:44:43.928Z,1028.50
2019-03-26T08:45:43.915Z,1028.58
2019-03-26T08:46:46.270Z,1028.55
2019-03-26T08:47:43.832Z,1028.56
2019-03-26T08:48:43.681Z,1028.58
2019-03-26T08:49:43.742Z,1028.62
2019-03-26T08:50:43.764Z,1028.64
2019-03-26T08:51:43.605Z,1028.66
2019-03-26T08:52:50.872Z,1028.64
2019-03-26T08:54:47.601Z,1028.74
2019-03-26T08:55:47.506Z,1028.69
2019-03-26T08:57:51.512Z,1028.73
2019-03-26T08:58:51.424Z,1028.74
2019-03-26T09:00:55.610Z,1028.71
2019-03-26T09:01:55.583Z,1028.72
2019-03-26T09:03:59.633Z,1028.75
2019-03-26T09:04:59.421Z,1028.72
2019-03-26T09:06:52.580Z,1028.69
2019-03-26T09:07:52.396Z,1028.66
2019-03-26T09:09:56.391Z,1028.64
2019-03-26T09:10:56.300Z,1028.61
2019-03-26T09:13:00.242Z,1028.65
2019-03-26T09:14:00.205Z,1028.65
2019-03-26T09:16:04.236Z,1028.66
2019-03-26T09:17:04.133Z,1028.63
2019-03-26T09:19:08.132Z,1028.70
2019-03-26T09:20:08.041Z,1028.67
2019-03-26T09:22:12.053Z,1028.69
2019-03-26T09:23:12.497Z,1028.69
2019-03-26T09:25:15.954Z,1028.67
2019-03-26T09:26:15.862Z,1028.68
2019-03-26T09:28:19.876Z,1028.78
2019-03-26T09:29:19.831Z,1028.80
2019-03-26T09:31:23.782Z,1028.83
2019-03-26T09:32:23.684Z,1028.89
2019-03-26T09:34:27.650Z,1028.87
2019-03-26T09:35:27.600Z,1028.87
2019-03-26T09:37:31.641Z,1028.90
2019-03-26T09:38:38.847Z,1028.95
2019-03-26T09:40:35.522Z,1028.97
2019-03-26T09:41:35.495Z,1028.98
2019-03-26T09:43:39.432Z,1029.02
2019-03-26T09:44:39.339Z,1028.97
2019-03-26T09:46:32.282Z,1029.02
2019-03-26T09:47:32.184Z,1029.02
2019-03-26T09:49:36.220Z,1028.95
2019-03-26T09:50:36.104Z,1028.92
2019-03-26T09:52:40.110Z,1028.95
2019-03-26T09:53:40.022Z,1028.91
2019-03-26T09:55:44.020Z,1028.86
2019-03-26T09:56:43.926Z,1028.89
2019-03-26T09:58:47.957Z,1028.85
2019-03-26T09:59:47.833Z,1028.87
2019-03-26T10:01:51.813Z,1028.86
2019-03-26T10:02:51.765Z,1028.85
2019-03-26T10:04:55.762Z,1028.83
2019-03-26T10:05:55.663Z,1028.86
2019-03-26T10:07:59.673Z,1028.80
2019-03-26T10:08:59.574Z,1028.78
2019-03-26T10:11:03.584Z,1028.74
2019-03-26T10:12:03.483Z,1028.70
2019-03-26T10:14:07.500Z,1028.69
2019-03-26T10:15:07.401Z,1028.70
2019-03-26T10:17:00.357Z,1028.69
2019-03-26T10:18:00.322Z,1028.71
2019-03-26T10:20:04.260Z,1028.72
2019-03-26T10:21:04.160Z,1028.68
2019-03-26T10:23:08.193Z,1028.70
2019-03-26T10:24:08.083Z,1028.74
2019-03-26T10:26:12.092Z,1028.79
2019-03-26T10:27:11.993Z,1028.86
2019-03-26T10:29:29.600Z,1028.91
2019-03-26T10:30:15.893Z,1028.94
2019-03-26T10:32:19.912Z,1028.82
2019-03-26T10:33:19.812Z,1028.79
2019-03-26T10:35:23.822Z,1028.76
2019-03-26T10:36:23.722Z,1028.76
2019-03-26T10:38:27.731Z,1028.80
2019-03-26T10:39:27.632Z,1028.80
2019-03-26T10:41:31.650Z,1028.78
2019-03-26T10:42:31.554Z,1028.78
2019-03-26T10:44:35.564Z,1028.77
2019-03-26T10:45:35.473Z,1028.77
2019-03-26T10:47:39.425Z,1028.81
2019-03-26T10:48:39.441Z,1028.77
2019-03-26T10:50:43.334Z,1028.86
2019-03-26T10:51:43.290Z,1028.87
2019-03-26T10:53:47.302Z,1028.86
2019-03-26T10:54:47.201Z,1028.76
2019-03-26T10:56:40.277Z,1028.83
2019-03-26T10:57:40.051Z,1028.86
2019-03-26T10:59:44.062Z,1028.73
2019-03-26T11:00:43.963Z,1028.75
2019-03-26T11:02:47.981Z,1028.72
2019-03-26T11:03:47.894Z,1028.80
2019-03-26T11:05:51.891Z,1028.86
2019-03-26T11:06:51.872Z,1028.87
2019-03-26T11:08:55.813Z,1028.88
2019-03-26T11:09:55.727Z,1028.80
2019-03-26T11:11:59.711Z,1028.78
2019-03-26T11:12:59.623Z,1028.74
2019-03-26T11:15:03.733Z,1028.74
2019-03-26T11:16:03.661Z,1028.68
2019-03-26T11:18:07.643Z,1028.63
2019-03-26T11:19:07.551Z,1028.56
2019-03-26T11:21:11.652Z,1028.58
2019-03-26T11:22:11.550Z,1028.55
2019-03-26T11:24:15.569Z,1028.52
2019-03-26T11:25:15.471Z,1028.49
2019-03-26T11:27:08.455Z,1028.47
2019-03-26T11:28:08.324Z,1028.44
2019-03-26T11:30:12.790Z,1028.45
2019-03-26T11:31:12.810Z,1028.45
2019-03-26T11:33:16.762Z,1028.47
2019-03-26T11:34:16.663Z,1028.42
2019-03-26T11:36:20.774Z,1028.46
2019-03-26T11:37:20.682Z,1028.49
2019-03-26T11:39:32.585Z,1028.45
2019-03-26T11:40:24.693Z,1028.44
2019-03-26T11:42:28.802Z,1028.43
2019-03-26T11:43:28.701Z,1028.46
2019-03-26T11:45:32.823Z,1028.38
2019-03-26T11:46:32.734Z,1028.35
2019-03-26T11:48:36.830Z,1028.46
2019-03-26T11:49:36.732Z,1028.42
2019-03-26T11:51:40.853Z,1028.42
2019-03-26T11:52:40.758Z,1028.36
2019-03-26T11:54:44.862Z,1028.34
2019-03-26T11:55:44.762Z,1028.39
2019-03-26T11:57:48.880Z,1028.41
2019-03-26T11:58:48.780Z,1028.43
2019-03-26T12:00:52.903Z,1028.50
2019-03-26T12:01:52.862Z,1028.43
2019-03-26T12:03:56.935Z,1028.45
2019-03-26T12:04:56.814Z,1028.43
2019-03-26T12:06:49.862Z,1028.35
2019-03-26T12:07:49.761Z,1028.35
2019-03-26T12:09:53.894Z,1028.29
2019-03-26T12:10:53.780Z,1028.31
2019-03-26T12:12:57.844Z,1028.24
2019-03-26T12:13:57.791Z,1028.23
2019-03-26T12:16:01.910Z,1028.28
2019-03-26T12:17:01.812Z,1028.27
2019-03-26T12:19:05.862Z,1028.28
2019-03-26T12:20:05.830Z,1028.32
2019-03-26T12:22:09.954Z,1028.27
2019-03-26T12:23:09.830Z,1028.27
2019-03-26T12:25:13.963Z,1028.24
2019-03-26T12:26:13.861Z,1028.21
2019-03-26T12:28:18.071Z,1028.12
2019-03-26T12:29:17.872Z,1028.14
2019-03-26T12:31:11.344Z,1028.11
2019-03-26T12:32:11.022Z,1028.15
2019-03-26T12:34:15.139Z,1028.16
2019-03-26T12:35:15.046Z,1028.22
2019-03-26T12:37:08.216Z,1028.20
2019-03-26T12:38:08.002Z,1028.19
2019-03-26T12:40:12.219Z,1028.16
2019-03-26T12:41:12.011Z,1028.16
2019-03-26T12:43:16.241Z,1028.21
2019-03-26T12:44:16.030Z,1028.18
2019-03-26T12:46:20.070Z,1028.14
2019-03-26T12:47:20.039Z,1028.19
2019-03-26T12:49:24.362Z,1028.18
2019-03-26T12:50:24.060Z,1028.13
2019-03-26T12:52:28.285Z,1028.00
2019-03-26T12:53:28.244Z,1027.98
2019-03-26T12:55:32.303Z,1027.98
2019-03-26T12:56:32.089Z,1028.01
2019-03-26T12:58:36.803Z,1027.98
2019-03-26T12:59:36.099Z,1028.05
2019-03-26T13:01:40.153Z,1027.99
2019-03-26T13:02:40.294Z,1027.99
2019-03-26T13:04:44.174Z,1028.02
2019-03-26T13:05:44.299Z,1027.99
2019-03-26T13:07:48.349Z,1028.08
2019-03-26T13:08:48.149Z,1028.03
2019-03-26T13:10:54.071Z,1028.01
2019-03-26T13:11:52.160Z,1028.02
2019-03-26T13:13:56.379Z,1028.00
2019-03-26T13:14:59.248Z,1027.99
2019-03-26T13:16:49.330Z,1027.98
2019-03-26T13:17:49.129Z,1028.00
2019-03-26T13:19:53.347Z,1027.98
2019-03-26T13:20:53.139Z,1027.94
2019-03-26T13:22:57.369Z,1027.92
2019-03-26T13:23:57.158Z,1027.91
2019-03-26T13:26:01.380Z,1027.93
2019-03-26T13:27:01.179Z,1027.88
2019-03-26T13:29:05.203Z,1027.84
2019-03-26T13:30:05.287Z,1027.83
2019-03-26T13:32:09.140Z,1027.80
2019-03-26T13:33:09.101Z,1027.81
2019-03-26T13:35:13.321Z,1027.90
2019-03-26T13:36:13.132Z,1027.80
2019-03-26T13:38:17.230Z,1027.76
2019-03-26T13:39:17.033Z,1027.78
2019-03-26T13:41:21.038Z,1027.84
2019-03-26T13:42:20.942Z,1027.83
2019-03-26T13:44:24.959Z,1027.80
2019-03-26T13:45:24.861Z,1027.83
2019-03-26T13:47:28.962Z,1027.83
2019-03-26T13:48:28.930Z,1027.80
2019-03-26T13:50:32.993Z,1027.87
2019-03-26T13:51:32.892Z,1027.90
2019-03-26T13:53:37.190Z,1027.84
2019-03-26T13:54:36.826Z,1027.78
2019-03-26T13:56:29.750Z,1027.80
2019-03-26T13:57:29.659Z,1027.79
2019-03-26T13:59:33.709Z,1027.81
2019-03-26T14:00:33.664Z,1027.79
2019-03-26T14:02:37.781Z,1027.86
2019-03-26T14:03:37.679Z,1027.81
2019-03-26T14:05:41.815Z,1027.78
2019-03-26T14:06:41.743Z,1027.81
2019-03-26T14:08:45.810Z,1027.87
2019-03-26T14:09:45.722Z,1027.89
2019-03-26T14:11:49.820Z,1027.90
2019-03-26T14:12:49.727Z,1027.85
2019-03-26T14:14:53.848Z,1027.84
2019-03-26T14:15:53.739Z,1027.76
2019-03-26T14:17:57.864Z,1027.77
2019-03-26T14:18:57.761Z,1027.72
2019-03-26T14:21:01.871Z,1027.73
2019-03-26T14:22:01.840Z,1027.76
2019-03-26T14:24:05.790Z,1027.76
2019-03-26T14:25:05.694Z,1027.73
2019-03-26T14:26:58.684Z,1027.76
2019-03-26T14:27:58.642Z,1027.72
2019-03-26T14:30:02.757Z,1027.75
2019-03-26T14:31:02.655Z,1027.75
2019-03-26T14:33:06.691Z,1027.71
2019-03-26T14:34:06.736Z,1027.76
2019-03-26T14:36:10.880Z,1027.75
2019-03-26T14:37:10.681Z,1027.76
2019-03-26T14:39:14.792Z,1027.82
2019-03-26T14:40:14.723Z,1027.82
2019-03-26T14:42:19.856Z,1027.78